Allison, Illinois
Current Conditions -  °F | °C
As of 7:53 PM on Wednesday 22 Oct 2014 (Local Time) from KLWV Reporting Station
Clear Clear  
Wind Chill: 48°   Ceiling: Unl
Heat Index: 48°   Visibility: 10mi
Dew Point: 42°   Wind: 3mph
Humidity: 80%   Direction: 330°NNW
Pressure: 30.25"   Gusts: NA
Location:  38.7501°N, 87.6141°W
Report Text: KLWV 230053Z AUTO 33003KT 10SM CLR 09/06 A3025 RMK AO2 SLP245 T00890056
Loading
Personal Weather Stations






























Interactive Weather Map
Tropical Storm Tracking
New forecast layout! Learn more

10-Day Weather Forecast

Advertisements
Track Severe Weather on mobile